createdAt,value
2023-04-04T00:00:19.322Z,17.30
2023-04-04T00:02:52.184Z,17.26
2023-04-04T00:05:24.749Z,17.31
2023-04-04T00:08:00.489Z,17.17
2023-04-04T00:10:38.026Z,17.22
2023-04-04T00:13:12.229Z,17.23
2023-04-04T00:15:50.964Z,17.32
2023-04-04T00:18:34.176Z,17.32
2023-04-04T00:21:07.395Z,17.20
2023-04-04T00:23:37.167Z,17.08
2023-04-04T00:26:06.747Z,17.15
2023-04-04T00:28:44.248Z,17.05
2023-04-04T00:31:16.155Z,16.97
2023-04-04T00:33:57.439Z,16.93
2023-04-04T00:36:35.209Z,16.97
2023-04-04T00:39:07.653Z,16.90
2023-04-04T00:41:45.987Z,16.94
2023-04-04T00:44:21.716Z,16.95
2023-04-04T00:46:59.002Z,17.00
2023-04-04T00:49:34.090Z,16.89
2023-04-04T00:52:03.738Z,16.97
2023-04-04T00:57:28.284Z,16.85
2023-04-04T01:00:03.161Z,16.94
2023-04-04T01:02:48.577Z,16.98
2023-04-04T01:05:27.744Z,16.81
2023-04-04T01:08:03.610Z,16.76
2023-04-04T01:10:40.125Z,16.69
2023-04-04T01:13:17.681Z,16.63
2023-04-04T01:16:01.922Z,16.53
2023-04-04T01:18:41.743Z,16.59
2023-04-04T01:21:21.953Z,16.65
2023-04-04T01:24:06.487Z,16.56
2023-04-04T01:26:57.098Z,16.46
2023-04-04T01:29:38.974Z,16.32
2023-04-04T01:32:24.464Z,16.34
2023-04-04T01:35:05.207Z,16.20
2023-04-04T01:37:52.078Z,16.19
2023-04-04T01:40:35.829Z,16.00
2023-04-04T01:43:20.638Z,16.15
2023-04-04T01:46:03.602Z,16.09
2023-04-04T01:48:50.993Z,15.95
2023-04-04T01:51:47.678Z,16.04
2023-04-04T01:54:21.228Z,16.00
2023-04-04T01:57:07.151Z,16.11
2023-04-04T02:02:31.123Z,15.86
2023-04-04T02:05:11.520Z,15.90
2023-04-04T02:07:41.712Z,15.96
2023-04-04T02:10:32.628Z,15.87
2023-04-04T02:13:16.633Z,15.96
2023-04-04T02:16:05.186Z,16.04
2023-04-04T02:18:39.346Z,15.88
2023-04-04T02:21:15.261Z,15.91
2023-04-04T02:24:02.368Z,15.85
2023-04-04T02:26:32.940Z,15.95
2023-04-04T02:29:00.356Z,15.95
2023-04-04T02:31:40.262Z,15.87
2023-04-04T02:34:20.308Z,15.89
2023-04-04T02:37:07.685Z,15.89
2023-04-04T02:39:37.980Z,15.99
2023-04-04T02:42:07.714Z,16.01
2023-04-04T02:44:41.118Z,15.85
2023-04-04T02:47:19.535Z,15.58
2023-04-04T02:49:52.148Z,15.60
2023-04-04T02:52:22.352Z,15.56
2023-04-04T02:54:58.630Z,15.46
2023-04-04T02:57:37.575Z,15.70
2023-04-04T03:00:20.540Z,15.60
2023-04-04T03:03:28.544Z,15.50
2023-04-04T03:06:01.797Z,15.50
2023-04-04T03:08:38.438Z,15.72
2023-04-04T03:11:16.183Z,15.71
2023-04-04T03:13:56.116Z,15.55
2023-04-04T03:16:43.697Z,15.61
2023-04-04T03:19:19.692Z,15.67
2023-04-04T03:22:04.040Z,15.72
2023-04-04T03:24:35.908Z,15.84
2023-04-04T03:27:15.245Z,15.90
2023-04-04T03:29:50.871Z,15.89
2023-04-04T03:32:32.803Z,15.67
2023-04-04T03:35:03.324Z,15.81
2023-04-04T03:37:33.604Z,15.74
2023-04-04T03:40:06.136Z,15.82
2023-04-04T03:42:39.485Z,15.44
2023-04-04T03:45:12.906Z,15.45
2023-04-04T03:47:53.186Z,15.38
2023-04-04T03:50:39.018Z,15.29
2023-04-04T03:53:21.532Z,15.37
2023-04-04T03:56:07.459Z,15.07
2023-04-04T03:58:36.673Z,14.98
2023-04-04T04:01:04.104Z,14.97
2023-04-04T04:03:42.293Z,14.99
2023-04-04T04:06:20.482Z,14.64
2023-04-04T04:08:54.331Z,14.82
2023-04-04T04:11:28.994Z,14.85
2023-04-04T04:14:05.023Z,14.65
2023-04-04T04:16:36.774Z,14.60
2023-04-04T04:19:19.381Z,14.39
2023-04-04T04:22:04.038Z,14.31
2023-04-04T04:24:37.573Z,14.41
2023-04-04T04:27:18.964Z,14.28
2023-04-04T04:29:51.716Z,14.55
2023-04-04T04:32:26.704Z,14.45
2023-04-04T04:35:04.889Z,14.59
2023-04-04T04:37:41.593Z,14.50
2023-04-04T04:40:21.899Z,14.67
2023-04-04T04:43:11.572Z,14.79
2023-04-04T04:45:51.001Z,14.64
2023-04-04T04:48:37.558Z,14.37
2023-04-04T04:51:20.244Z,14.58
2023-04-04T04:53:57.420Z,14.83
2023-04-04T04:56:30.165Z,14.62
2023-04-04T04:59:09.310Z,14.70
2023-04-04T05:01:46.206Z,14.90
2023-04-04T05:04:20.768Z,15.01
2023-04-04T05:07:08.393Z,14.91
2023-04-04T05:09:40.526Z,14.74
2023-04-04T05:16:08.064Z,14.21
2023-04-04T05:18:42.069Z,14.44
2023-04-04T05:21:17.708Z,14.57
2023-04-04T05:23:59.640Z,14.41
2023-04-04T05:26:43.605Z,14.69
2023-04-04T05:29:24.333Z,14.57
2023-04-04T05:32:05.872Z,14.62
2023-04-04T05:34:48.371Z,14.64
2023-04-04T05:37:41.380Z,14.38
2023-04-04T05:40:18.871Z,14.56
2023-04-04T05:42:58.644Z,14.50
2023-04-04T05:45:40.514Z,14.45
2023-04-04T05:48:36.780Z,14.43
2023-04-04T05:51:11.222Z,14.37
2023-04-04T05:53:51.151Z,14.46
2023-04-04T05:56:31.316Z,14.22
2023-04-04T05:59:12.669Z,14.47
2023-04-04T06:01:59.721Z,14.34
2023-04-04T06:04:38.547Z,14.41
2023-04-04T06:07:13.349Z,14.58
2023-04-04T06:09:58.667Z,14.48
2023-04-04T06:12:30.070Z,14.66
2023-04-04T06:15:03.541Z,14.53
2023-04-04T06:17:39.872Z,14.53
2023-04-04T06:20:14.116Z,14.63
2023-04-04T06:22:53.671Z,14.77
2023-04-04T06:25:27.072Z,14.94
2023-04-04T06:28:01.023Z,14.87
2023-04-04T06:30:38.349Z,15.02
2023-04-04T06:33:13.449Z,15.04
2023-04-04T06:35:50.327Z,14.98
2023-04-04T06:38:21.309Z,15.08
2023-04-04T06:40:53.302Z,15.23
2023-04-04T06:43:25.714Z,15.14
2023-04-04T06:46:21.680Z,15.28
2023-04-04T06:48:54.619Z,15.30
2023-04-04T06:51:39.692Z,15.16
2023-04-04T06:54:11.295Z,15.08
2023-04-04T06:56:44.546Z,15.16
2023-04-04T06:59:26.134Z,15.19
2023-04-04T07:02:02.341Z,15.22
2023-04-04T07:04:32.916Z,15.15
2023-04-04T07:07:03.075Z,15.23
2023-04-04T07:09:33.896Z,15.15
2023-04-04T07:12:03.555Z,15.15
2023-04-04T07:14:30.639Z,15.07
2023-04-04T07:17:23.695Z,14.99
2023-04-04T07:19:51.584Z,15.12
2023-04-04T07:22:18.717Z,15.05
2023-04-04T07:24:46.035Z,14.98
2023-04-04T07:27:15.489Z,15.23
2023-04-04T07:29:43.183Z,15.25
2023-04-04T07:32:10.275Z,15.16
2023-04-04T07:34:40.510Z,15.42
2023-04-04T07:37:07.614Z,15.37
2023-04-04T07:39:40.346Z,15.48
2023-04-04T07:42:10.172Z,15.37
2023-04-04T07:44:37.411Z,15.65
2023-04-04T07:47:10.030Z,15.76
2023-04-04T07:49:38.001Z,15.80
2023-04-04T07:52:07.562Z,15.91
2023-04-04T07:54:37.261Z,15.87
2023-04-04T07:57:09.974Z,15.87
2023-04-04T07:59:39.591Z,16.02
2023-04-04T08:02:09.676Z,16.13
2023-04-04T08:04:36.882Z,16.26
2023-04-04T08:07:04.244Z,16.21
2023-04-04T08:09:34.566Z,16.30
2023-04-04T08:12:13.221Z,16.73
2023-04-04T08:14:40.284Z,16.64
2023-04-04T08:17:07.374Z,17.01
2023-04-04T08:19:39.370Z,17.05
2023-04-04T08:22:06.609Z,17.42
2023-04-04T08:24:33.831Z,17.71
2023-04-04T08:27:05.012Z,17.98
2023-04-04T08:29:35.720Z,18.37
2023-04-04T08:32:03.157Z,18.72
2023-04-04T08:34:30.730Z,19.03
2023-04-04T08:37:01.885Z,19.27
2023-04-04T08:39:32.500Z,19.32
2023-04-04T08:42:07.870Z,19.73
2023-04-04T08:44:38.237Z,19.42
2023-04-04T08:47:11.110Z,19.96
2023-04-04T08:49:44.021Z,20.07
2023-04-04T08:52:19.576Z,20.53
2023-04-04T08:54:56.867Z,20.74
2023-04-04T08:57:25.117Z,20.91
2023-04-04T08:59:54.817Z,21.02
2023-04-04T09:02:49.509Z,20.99
2023-04-04T09:05:17.765Z,21.05
2023-04-04T09:07:45.369Z,21.17
2023-04-04T09:10:14.890Z,21.13
2023-04-04T09:12:47.798Z,20.53
2023-04-04T09:15:15.437Z,20.60
2023-04-04T09:17:43.718Z,20.78
2023-04-04T09:20:37.302Z,20.94
2023-04-04T09:23:26.089Z,21.28
2023-04-04T09:28:26.435Z,21.55
2023-04-04T09:30:53.432Z,21.30
2023-04-04T09:33:26.971Z,20.96
2023-04-04T09:36:11.357Z,20.62
2023-04-04T09:38:47.808Z,20.87
2023-04-04T09:41:21.631Z,21.03
2023-04-04T09:43:51.770Z,21.61
2023-04-04T09:46:22.074Z,21.51
2023-04-04T09:48:51.752Z,21.26
2023-04-04T09:51:22.929Z,21.49
2023-04-04T09:53:51.561Z,21.79
2023-04-04T09:56:22.647Z,21.89
2023-04-04T09:59:04.080Z,21.81
2023-04-04T10:01:56.155Z,21.82
2023-04-04T10:05:05.277Z,22.44
2023-04-04T10:08:03.488Z,22.60
2023-04-04T10:11:09.521Z,22.28
2023-04-04T10:14:07.038Z,22.03
2023-04-04T10:16:57.239Z,22.57
2023-04-04T10:19:49.084Z,22.45
2023-04-04T10:22:52.786Z,21.93
2023-04-04T10:25:45.075Z,22.40
2023-04-04T10:28:41.442Z,22.05
2023-04-04T10:31:30.685Z,22.47
2023-04-04T10:34:39.312Z,22.37
2023-04-04T10:37:43.746Z,22.85
2023-04-04T10:40:34.477Z,23.38
2023-04-04T10:43:12.568Z,23.57
2023-04-04T10:45:47.173Z,23.82
2023-04-04T10:48:43.972Z,23.57
2023-04-04T10:51:39.442Z,23.50
2023-04-04T10:54:23.457Z,23.63
2023-04-04T10:57:05.105Z,23.36
2023-04-04T11:00:20.563Z,23.83
2023-04-04T11:03:25.360Z,23.62
2023-04-04T11:13:14.673Z,24.01
2023-04-04T11:15:55.140Z,24.12
2023-04-04T11:19:03.281Z,24.41
2023-04-04T11:21:45.237Z,24.51
2023-04-04T11:24:26.216Z,24.92
2023-04-04T11:27:37.032Z,24.71
2023-04-04T11:30:30.778Z,24.56
2023-04-04T11:33:09.646Z,24.77
2023-04-04T11:35:44.991Z,24.64
2023-04-04T11:38:21.505Z,24.40
2023-04-04T11:41:11.140Z,24.31
2023-04-04T11:43:50.239Z,25.15
2023-04-04T11:46:50.478Z,24.87
2023-04-04T11:49:46.832Z,24.68
2023-04-04T11:52:28.734Z,24.31
2023-04-04T11:55:49.862Z,24.64
2023-04-04T11:59:19.728Z,23.92
2023-04-04T12:01:53.346Z,24.34
2023-04-04T12:04:35.765Z,24.41
2023-04-04T12:07:16.112Z,24.29
2023-04-04T12:09:49.198Z,24.38
2023-04-04T12:12:24.718Z,24.63
2023-04-04T12:15:17.055Z,24.18
2023-04-04T12:17:59.912Z,24.07
2023-04-04T12:20:37.958Z,24.03
2023-04-04T12:23:28.499Z,24.20
2023-04-04T12:26:14.725Z,23.98
2023-04-04T12:29:01.527Z,23.34
2023-04-04T12:31:37.688Z,23.56
2023-04-04T12:34:33.266Z,23.12
2023-04-04T12:37:43.408Z,23.00
2023-04-04T12:43:30.101Z,23.64
2023-04-04T12:46:39.725Z,23.86
2023-04-04T12:49:52.808Z,23.84
2023-04-04T12:52:50.625Z,23.84
2023-04-04T12:55:25.608Z,24.48
2023-04-04T12:58:04.955Z,24.41
2023-04-04T13:00:39.884Z,24.38
2023-04-04T13:03:18.697Z,23.71
2023-04-04T13:05:48.861Z,23.88
2023-04-04T13:08:20.524Z,23.48
2023-04-04T13:11:22.529Z,22.85
2023-04-04T13:14:25.942Z,23.11
2023-04-04T13:17:22.867Z,23.53
2023-04-04T13:19:53.044Z,23.79
2023-04-04T13:22:26.587Z,24.00
2023-04-04T13:25:09.051Z,23.77
2023-04-04T13:27:39.670Z,23.64
2023-04-04T13:30:13.824Z,23.76
2023-04-04T13:32:48.322Z,23.59
2023-04-04T13:35:19.572Z,23.44
2023-04-04T13:37:50.262Z,24.13
2023-04-04T13:40:17.929Z,23.53
2023-04-04T13:43:00.372Z,23.99
2023-04-04T13:45:49.952Z,23.93
2023-04-04T13:48:21.790Z,23.71
2023-04-04T13:51:21.226Z,23.68
2023-04-04T13:53:49.232Z,23.75
2023-04-04T13:56:49.461Z,24.42
2023-04-04T14:02:12.869Z,24.32
2023-04-04T14:05:17.166Z,24.80
2023-04-04T14:08:36.585Z,24.77
2023-04-04T14:16:56.913Z,24.43
2023-04-04T14:19:33.429Z,23.55
2023-04-04T14:22:07.438Z,24.02
2023-04-04T14:24:48.786Z,24.25
2023-04-04T14:31:21.837Z,23.02
2023-04-04T14:39:07.111Z,23.53
2023-04-04T14:41:41.196Z,23.38
2023-04-04T14:44:33.595Z,22.90
2023-04-04T14:47:20.654Z,22.54
2023-04-04T14:49:56.005Z,22.01
2023-04-04T14:52:34.116Z,21.81
2023-04-04T14:55:14.006Z,21.58
2023-04-04T14:58:02.559Z,21.94
2023-04-04T15:00:40.977Z,21.91
2023-04-04T15:03:41.406Z,22.04
2023-04-04T15:06:21.827Z,21.74
2023-04-04T15:08:50.104Z,21.83
2023-04-04T15:11:29.536Z,21.83
2023-04-04T15:14:07.084Z,21.93
2023-04-04T15:16:41.074Z,21.84
2023-04-04T15:19:28.805Z,21.53
2023-04-04T15:22:07.488Z,21.17
2023-04-04T15:24:37.222Z,21.48
2023-04-04T15:27:29.860Z,20.75
2023-04-04T15:30:01.843Z,20.80
2023-04-04T15:32:53.187Z,21.07
2023-04-04T15:35:29.970Z,21.36
2023-04-04T15:38:15.941Z,21.01
2023-04-04T15:40:48.659Z,21.15
2023-04-04T15:43:18.291Z,21.08
2023-04-04T15:45:52.689Z,21.00
2023-04-04T15:48:24.232Z,20.77
2023-04-04T15:51:06.799Z,20.97
2023-04-04T15:53:42.366Z,20.85
2023-04-04T15:56:22.932Z,20.98
2023-04-04T15:58:53.988Z,21.07
2023-04-04T16:01:28.811Z,20.77
2023-04-04T16:04:09.120Z,20.74
2023-04-04T16:07:04.734Z,20.50
2023-04-04T16:09:46.700Z,20.47
2023-04-04T16:12:44.400Z,20.44
2023-04-04T16:15:45.163Z,20.81
2023-04-04T16:18:42.188Z,20.78
2023-04-04T16:21:31.701Z,20.71
2023-04-04T16:24:06.719Z,20.72
2023-04-04T16:26:48.672Z,20.49
2023-04-04T16:29:23.600Z,20.05
2023-04-04T16:32:11.342Z,19.87
2023-04-04T16:34:45.946Z,20.15
2023-04-04T16:37:19.041Z,20.25
2023-04-04T16:39:55.384Z,20.26
2023-04-04T16:42:34.221Z,19.95
2023-04-04T16:45:13.145Z,19.76
2023-04-04T16:47:51.035Z,19.55
2023-04-04T16:50:30.017Z,19.95
2023-04-04T16:53:25.113Z,19.92
2023-04-04T16:56:13.781Z,19.78
2023-04-04T16:58:54.631Z,19.90
2023-04-04T17:01:29.972Z,19.79
2023-04-04T17:04:16.836Z,19.80
2023-04-04T17:06:54.431Z,19.48
2023-04-04T17:09:25.685Z,19.71
2023-04-04T17:12:06.269Z,19.89
2023-04-04T17:14:37.602Z,19.65
2023-04-04T17:17:12.618Z,19.35
2023-04-04T17:19:55.431Z,19.42
2023-04-04T17:22:27.587Z,19.62
2023-04-04T17:24:57.932Z,19.73
2023-04-04T17:27:54.310Z,19.71
2023-04-04T17:30:31.974Z,19.51
2023-04-04T17:33:11.332Z,19.62
2023-04-04T17:35:41.356Z,19.55
2023-04-04T17:38:14.898Z,19.50
2023-04-04T17:40:48.573Z,19.55
2023-04-04T17:43:27.332Z,19.33
2023-04-04T17:46:21.170Z,19.34
2023-04-04T17:49:25.011Z,19.55
2023-04-04T17:52:05.099Z,19.08
2023-04-04T17:54:42.574Z,19.12
2023-04-04T17:57:15.988Z,19.13
2023-04-04T18:03:06.914Z,19.03
2023-04-04T18:06:03.180Z,18.91
2023-04-04T18:08:36.840Z,19.07
2023-04-04T18:11:19.328Z,18.83
2023-04-04T18:13:53.612Z,18.36
2023-04-04T18:16:22.759Z,18.16
2023-04-04T18:18:57.291Z,18.46
2023-04-04T18:21:48.674Z,18.56
2023-04-04T18:24:21.827Z,18.37
2023-04-04T18:26:53.876Z,18.11
2023-04-04T18:29:31.832Z,18.33
2023-04-04T18:32:06.938Z,18.43
2023-04-04T18:34:35.705Z,18.40
2023-04-04T18:37:12.846Z,18.36
2023-04-04T18:39:41.305Z,18.29
2023-04-04T18:42:37.299Z,18.50
2023-04-04T18:45:39.487Z,18.45
2023-04-04T18:48:15.098Z,18.44
2023-04-04T18:50:49.389Z,18.06
2023-04-04T18:53:34.714Z,18.31
2023-04-04T18:56:30.222Z,18.32
2023-04-04T18:59:11.856Z,18.49
2023-04-04T19:01:57.499Z,18.25
2023-04-04T19:04:39.880Z,18.37
2023-04-04T19:07:43.021Z,18.40
2023-04-04T19:10:31.785Z,18.18
2023-04-04T19:13:21.514Z,18.26
2023-04-04T19:16:12.200Z,18.33
2023-04-04T19:19:30.264Z,18.16
2023-04-04T19:22:09.709Z,18.20
2023-04-04T19:24:54.208Z,18.14
2023-04-04T19:27:54.691Z,18.12
2023-04-04T19:30:49.936Z,18.24
2023-04-04T19:33:42.761Z,18.41
2023-04-04T19:36:32.163Z,18.52
2023-04-04T19:39:27.480Z,18.53
2023-04-04T19:45:03.749Z,18.38
2023-04-04T19:47:43.302Z,18.38
2023-04-04T19:51:04.012Z,18.51
2023-04-04T19:54:04.432Z,18.26
2023-04-04T19:56:48.745Z,18.42
2023-04-04T19:59:59.830Z,18.42
2023-04-04T20:03:00.149Z,18.29
2023-04-04T20:05:46.869Z,18.42
2023-04-04T20:08:26.857Z,18.48
2023-04-04T20:11:23.638Z,18.46
2023-04-04T20:14:11.528Z,18.36
2023-04-04T20:17:04.893Z,18.46
2023-04-04T20:19:40.447Z,18.55
2023-04-04T20:22:20.480Z,18.42
2023-04-04T20:25:31.748Z,18.48
2023-04-04T20:28:33.474Z,18.15
2023-04-04T20:34:02.952Z,18.23
2023-04-04T20:36:39.546Z,18.34
2023-04-04T20:39:44.283Z,18.13
2023-04-04T20:42:32.554Z,18.17
2023-04-04T20:45:44.175Z,17.90
2023-04-04T20:48:41.811Z,18.06
2023-04-04T20:51:32.023Z,17.80
2023-04-04T20:54:05.758Z,18.10
2023-04-04T20:56:53.255Z,18.02
2023-04-04T21:00:05.738Z,18.16
2023-04-04T21:02:55.155Z,18.09
2023-04-04T21:05:42.314Z,18.13
2023-04-04T21:08:42.341Z,18.18
2023-04-04T21:11:38.760Z,18.15
2023-04-04T21:14:08.672Z,18.05
2023-04-04T21:16:42.143Z,18.09
2023-04-04T21:19:13.645Z,18.17
2023-04-04T21:21:45.680Z,18.06
2023-04-04T21:26:56.470Z,17.98
2023-04-04T21:29:35.755Z,18.01
2023-04-04T21:32:22.327Z,18.03
2023-04-04T21:34:56.680Z,17.90
2023-04-04T21:37:26.675Z,17.80
2023-04-04T21:40:09.747Z,17.66
2023-04-04T21:42:49.510Z,17.76
2023-04-04T21:45:37.057Z,17.52
2023-04-04T21:48:07.510Z,17.20
2023-04-04T21:50:52.774Z,17.11
2023-04-04T21:53:42.303Z,16.90
2023-04-04T21:56:23.480Z,16.90
2023-04-04T21:58:53.598Z,16.93
2023-04-04T22:01:26.964Z,16.87
2023-04-04T22:03:56.570Z,16.70
2023-04-04T22:06:31.117Z,16.88
2023-04-04T22:09:03.332Z,17.00
2023-04-04T22:11:35.150Z,16.84
2023-04-04T22:14:05.995Z,17.12
2023-04-04T22:16:43.232Z,17.18
2023-04-04T22:19:11.734Z,16.83
2023-04-04T22:21:50.184Z,17.05
2023-04-04T22:24:21.469Z,17.03
2023-04-04T22:27:11.698Z,17.13
2023-04-04T22:29:44.497Z,17.32
2023-04-04T22:32:18.858Z,17.22
2023-04-04T22:35:15.057Z,17.23
2023-04-04T22:37:48.512Z,17.25
2023-04-04T22:40:27.013Z,17.25
2023-04-04T22:42:55.424Z,17.32
2023-04-04T22:45:26.010Z,17.38
2023-04-04T22:47:58.532Z,17.36
2023-04-04T22:50:29.467Z,16.91
2023-04-04T22:52:58.928Z,17.15
2023-04-04T22:55:29.195Z,17.05
2023-04-04T22:57:56.971Z,17.21
2023-04-04T23:00:35.759Z,16.95
2023-04-04T23:03:06.438Z,17.07
2023-04-04T23:05:50.069Z,17.11
2023-04-04T23:08:17.272Z,17.07
2023-04-04T23:10:47.282Z,17.17
2023-04-04T23:13:21.289Z,17.26
2023-04-04T23:15:59.058Z,17.13
2023-04-04T23:18:28.035Z,17.16
2023-04-04T23:20:55.274Z,17.10
2023-04-04T23:23:29.851Z,17.16
2023-04-04T23:26:00.241Z,17.14
2023-04-04T23:28:34.945Z,17.05
2023-04-04T23:31:05.726Z,16.86
2023-04-04T23:33:35.506Z,17.10
2023-04-04T23:36:05.268Z,16.99
2023-04-04T23:38:33.721Z,17.08
2023-04-04T23:41:03.297Z,17.09
2023-04-04T23:43:30.965Z,16.94
2023-04-04T23:46:10.938Z,16.89
2023-04-04T23:48:43.671Z,17.05
2023-04-04T23:51:11.146Z,17.00
2023-04-04T23:53:50.188Z,17.08
2023-04-04T23:56:19.055Z,17.11
2023-04-04T23:58:48.640Z,16.98
